createdAt,value
2018-01-19T00:02:10.676Z,1.73
2018-01-19T00:04:38.724Z,1.90
2018-01-19T00:07:06.772Z,1.30
2018-01-19T00:09:35.556Z,1.40
2018-01-19T00:12:03.606Z,1.80
2018-01-19T00:14:31.628Z,1.85
2018-01-19T00:17:00.448Z,1.65
2018-01-19T00:19:29.252Z,1.65
2018-01-19T00:21:58.077Z,1.20
2018-01-19T00:24:26.092Z,1.12
2018-01-19T00:26:54.145Z,1.98
2018-01-19T00:29:22.175Z,1.45
2018-01-19T00:31:50.233Z,1.80
2018-01-19T00:34:18.265Z,1.55
2018-01-19T00:36:47.084Z,2.15
2018-01-19T00:39:15.156Z,1.80
2018-01-19T00:41:43.189Z,1.87
2018-01-19T00:44:11.240Z,1.80
2018-01-19T00:46:39.276Z,1.20
2018-01-19T00:49:07.324Z,1.70
2018-01-19T00:51:35.356Z,1.50
2018-01-19T00:54:03.401Z,1.45
2018-01-19T00:56:31.432Z,1.50
2018-01-19T00:59:00.248Z,2.45
2018-01-19T01:01:28.281Z,2.03
2018-01-19T01:03:56.335Z,1.37
2018-01-19T01:06:24.360Z,1.70
2018-01-19T01:08:52.408Z,1.60
2018-01-19T01:11:20.449Z,1.95
2018-01-19T01:13:49.236Z,1.95
2018-01-19T01:16:17.285Z,1.65
2018-01-19T01:18:45.316Z,1.55
2018-01-19T01:21:14.129Z,1.80
2018-01-19T01:23:42.915Z,2.00
2018-01-19T01:26:11.728Z,2.30
2018-01-19T01:28:40.520Z,1.90
2018-01-19T01:31:09.340Z,1.90
2018-01-19T01:33:37.400Z,1.27
2018-01-19T01:36:06.206Z,1.25
2018-01-19T01:38:35.015Z,2.05
2018-01-19T01:41:03.809Z,1.45
2018-01-19T01:43:31.872Z,1.42
2018-01-19T01:45:59.901Z,1.60
2018-01-19T01:48:27.949Z,1.77
2018-01-19T01:50:55.932Z,1.27
2018-01-19T01:53:24.684Z,1.42
2018-01-19T01:55:52.688Z,1.30
2018-01-19T01:58:20.676Z,1.70
2018-01-19T02:00:48.671Z,1.92
2018-01-19T02:03:17.452Z,1.35
2018-01-19T02:05:45.427Z,1.65
2018-01-19T02:08:13.438Z,1.45
2018-01-19T02:10:41.443Z,1.60
2018-01-19T02:13:10.192Z,1.80
2018-01-19T02:15:38.187Z,1.75
2018-01-19T02:18:06.184Z,1.87
2018-01-19T02:20:34.180Z,2.00
2018-01-19T02:23:02.953Z,2.33
2018-01-19T02:25:32.444Z,2.20
2018-01-19T02:28:00.445Z,2.03
2018-01-19T02:30:28.429Z,2.80
2018-01-19T02:32:56.423Z,2.67
2018-01-19T02:35:24.421Z,2.87
2018-01-19T02:37:53.173Z,4.62
2018-01-19T02:40:21.177Z,2.78
2018-01-19T02:42:49.160Z,2.85
2018-01-19T02:45:18.772Z,2.58
2018-01-19T02:47:46.773Z,2.28
2018-01-19T02:50:14.768Z,2.65
2018-01-19T02:52:43.550Z,2.22
2018-01-19T02:55:11.534Z,2.12
2018-01-19T02:57:39.531Z,3.15
2018-01-19T03:00:08.288Z,2.50
2018-01-19T03:02:36.357Z,3.45
2018-01-19T03:05:04.348Z,2.75
2018-01-19T03:07:32.364Z,3.28
2018-01-19T03:10:00.340Z,2.67
2018-01-19T03:12:28.328Z,2.60
2018-01-19T03:14:56.356Z,4.20
2018-01-19T03:17:24.344Z,2.83
2018-01-19T03:19:52.344Z,3.55
2018-01-19T03:22:20.332Z,3.70
2018-01-19T03:24:48.344Z,2.90
2018-01-19T03:27:16.348Z,5.28
2018-01-19T03:29:44.352Z,3.47
2018-01-19T03:32:12.363Z,4.40
2018-01-19T03:34:40.344Z,3.58
2018-01-19T03:37:08.356Z,4.45
2018-01-19T03:39:36.344Z,3.37
2018-01-19T03:42:04.347Z,4.50
2018-01-19T03:44:33.118Z,6.57
2018-01-19T03:47:01.123Z,3.78
2018-01-19T03:49:29.116Z,4.45
2018-01-19T03:51:57.867Z,5.10
2018-01-19T03:54:25.873Z,3.40
2018-01-19T03:56:53.872Z,2.53
2018-01-19T03:59:22.632Z,3.00
2018-01-19T04:01:50.623Z,3.08
2018-01-19T04:04:18.617Z,3.78
2018-01-19T04:06:46.611Z,4.20
2018-01-19T04:09:14.612Z,2.40
2018-01-19T04:11:43.396Z,2.85
2018-01-19T04:14:12.900Z,2.40
2018-01-19T04:16:40.916Z,2.70
2018-01-19T04:19:09.657Z,3.08
2018-01-19T04:21:37.647Z,2.62
2018-01-19T04:24:05.648Z,2.22
2018-01-19T04:26:33.639Z,2.75
2018-01-19T04:29:01.640Z,2.00
2018-01-19T04:31:30.407Z,1.62
2018-01-19T04:33:58.392Z,2.22
2018-01-19T04:36:26.379Z,2.08
2018-01-19T04:38:54.363Z,2.08
2018-01-19T04:41:22.368Z,2.15
2018-01-19T04:43:51.118Z,3.17
2018-01-19T04:46:19.122Z,2.25
2018-01-19T04:48:47.128Z,3.35
2018-01-19T04:51:15.115Z,3.17
2018-01-19T04:53:43.873Z,2.22
2018-01-19T04:56:11.872Z,2.33
2018-01-19T04:58:39.872Z,3.50
2018-01-19T05:01:07.875Z,2.95
2018-01-19T05:03:35.860Z,2.28
2018-01-19T05:06:03.860Z,1.23
2018-01-19T05:08:31.849Z,1.30
2018-01-19T05:10:59.851Z,1.15
2018-01-19T05:13:27.880Z,0.98
2018-01-19T05:15:56.635Z,1.30
2018-01-19T05:18:24.628Z,1.15
2018-01-19T05:20:52.631Z,0.80
2018-01-19T05:23:20.615Z,1.33
2018-01-19T05:25:48.616Z,1.50
2018-01-19T05:28:17.392Z,1.15
2018-01-19T05:30:45.392Z,1.40
2018-01-19T05:33:14.148Z,1.33
2018-01-19T05:35:42.149Z,1.40
2018-01-19T05:38:10.135Z,1.35
2018-01-19T05:40:38.136Z,1.30
2018-01-19T05:43:06.892Z,1.45
2018-01-19T05:45:34.915Z,1.73
2018-01-19T05:48:02.896Z,1.00
2018-01-19T05:50:30.913Z,1.48
2018-01-19T05:52:59.647Z,2.12
2018-01-19T05:55:27.636Z,1.37
2018-01-19T05:57:55.637Z,1.50
2018-01-19T06:00:23.632Z,1.45
2018-01-19T06:02:52.387Z,1.77
2018-01-19T06:05:20.394Z,1.60
2018-01-19T06:07:48.376Z,1.60
2018-01-19T06:10:16.384Z,1.30
2018-01-19T06:12:45.131Z,1.70
2018-01-19T06:15:13.132Z,1.40
2018-01-19T06:17:41.136Z,1.58
2018-01-19T06:20:09.116Z,1.30
2018-01-19T06:22:37.120Z,1.50
2018-01-19T06:25:05.900Z,1.30
2018-01-19T06:27:33.914Z,1.75
2018-01-19T06:30:02.737Z,1.92
2018-01-19T06:32:30.734Z,1.87
2018-01-19T06:34:58.716Z,2.87
2018-01-19T06:37:26.713Z,1.90
2018-01-19T06:39:54.717Z,1.90
2018-01-19T06:42:22.715Z,2.12
2018-01-19T06:44:51.468Z,2.10
2018-01-19T06:47:19.471Z,1.98
2018-01-19T06:49:47.482Z,1.85
2018-01-19T06:52:16.246Z,1.92
2018-01-19T06:54:44.253Z,2.10
2018-01-19T06:57:12.237Z,1.85
2018-01-19T06:59:41.012Z,2.00
2018-01-19T07:02:09.979Z,1.80
2018-01-19T07:04:37.976Z,1.98
2018-01-19T07:07:05.977Z,1.40
2018-01-19T07:09:33.965Z,1.45
2018-01-19T07:12:01.964Z,1.60
2018-01-19T07:14:29.964Z,1.75
2018-01-19T07:16:58.726Z,1.50
2018-01-19T07:19:26.739Z,1.75
2018-01-19T07:21:54.715Z,1.70
2018-01-19T07:24:22.725Z,1.55
2018-01-19T07:26:50.724Z,1.30
2018-01-19T07:29:18.732Z,1.85
2018-01-19T07:31:46.735Z,1.60
2018-01-19T07:34:14.732Z,1.65
2018-01-19T07:36:44.136Z,1.45
2018-01-19T07:39:12.136Z,1.08
2018-01-19T07:41:40.921Z,1.42
2018-01-19T07:44:08.911Z,1.25
2018-01-19T07:46:37.672Z,1.73
2018-01-19T07:49:05.672Z,1.50
2018-01-19T07:51:33.665Z,1.50
2018-01-19T07:54:03.176Z,1.42
2018-01-19T07:56:31.189Z,1.40
2018-01-19T07:58:59.940Z,2.08
2018-01-19T08:01:27.948Z,1.83
2018-01-19T08:03:55.920Z,1.90
2018-01-19T08:06:23.928Z,1.95
2018-01-19T08:08:52.700Z,1.30
2018-01-19T08:11:20.688Z,1.75
2018-01-19T08:13:48.676Z,1.40
2018-01-19T08:16:16.688Z,1.58
2018-01-19T08:18:45.452Z,1.62
2018-01-19T08:21:13.440Z,1.10
2018-01-19T08:23:41.435Z,1.33
2018-01-19T08:26:09.440Z,1.35
2018-01-19T08:28:38.220Z,1.60
2018-01-19T08:31:06.284Z,1.60
2018-01-19T08:33:34.283Z,1.40
2018-01-19T08:36:02.285Z,1.40
2018-01-19T08:38:31.044Z,1.52
2018-01-19T08:40:59.064Z,1.35
2018-01-19T08:43:27.825Z,1.52
2018-01-19T08:45:55.834Z,1.75
2018-01-19T08:48:23.836Z,1.77
2018-01-19T08:50:52.596Z,1.37
2018-01-19T08:53:20.592Z,1.55
2018-01-19T08:55:48.583Z,1.95
2018-01-19T08:58:16.580Z,1.77
2018-01-19T09:00:45.357Z,1.85
2018-01-19T09:03:13.335Z,1.62
2018-01-19T09:05:41.344Z,2.08
2018-01-19T09:08:10.096Z,1.70
2018-01-19T09:10:38.088Z,1.73
2018-01-19T09:13:06.088Z,1.20
2018-01-19T09:15:34.076Z,2.05
2018-01-19T09:18:02.067Z,2.00
2018-01-19T09:20:30.831Z,1.33
2018-01-19T09:22:58.824Z,1.25
2018-01-19T09:25:26.828Z,1.73
2018-01-19T09:27:54.824Z,1.60
2018-01-19T09:30:23.597Z,0.88
2018-01-19T09:32:51.578Z,1.08
2018-01-19T09:35:19.575Z,1.00
2018-01-19T09:37:48.337Z,1.27
2018-01-19T09:40:16.336Z,1.20
2018-01-19T09:42:44.347Z,1.20
2018-01-19T09:45:13.152Z,1.30
2018-01-19T09:47:41.916Z,2.28
2018-01-19T09:50:09.900Z,1.35
2018-01-19T09:52:37.908Z,1.20
2018-01-19T09:55:05.908Z,1.50
2018-01-19T09:57:34.668Z,1.60
2018-01-19T10:00:02.666Z,1.67
2018-01-19T10:02:30.648Z,1.40
2018-01-19T10:04:58.648Z,1.42
2018-01-19T10:07:27.412Z,1.85
2018-01-19T10:09:55.404Z,1.62
2018-01-19T10:12:23.412Z,2.25
2018-01-19T10:14:52.166Z,2.10
2018-01-19T10:17:20.160Z,1.92
2018-01-19T10:19:48.157Z,1.60
2018-01-19T10:22:16.155Z,1.75
2018-01-19T10:24:44.927Z,1.90
2018-01-19T10:27:12.915Z,1.95
2018-01-19T10:29:40.923Z,1.40
2018-01-19T10:32:09.672Z,1.95
2018-01-19T10:34:37.675Z,1.42
2018-01-19T10:37:05.674Z,2.12
2018-01-19T10:39:33.668Z,1.73
2018-01-19T10:42:01.668Z,1.70
2018-01-19T10:44:29.655Z,1.55
2018-01-19T10:46:57.660Z,1.95
2018-01-19T10:49:25.659Z,1.45
2018-01-19T10:51:53.667Z,1.50
2018-01-19T10:54:23.160Z,1.40
2018-01-19T10:56:51.149Z,1.48
2018-01-19T10:59:19.925Z,1.17
2018-01-19T11:01:47.937Z,1.23
2018-01-19T11:04:15.919Z,1.45
2018-01-19T11:06:43.936Z,1.30
2018-01-19T11:09:12.688Z,1.30
2018-01-19T11:11:40.691Z,2.00
2018-01-19T11:14:08.692Z,1.55
2018-01-19T11:16:36.680Z,2.67
2018-01-19T11:19:05.443Z,1.37
2018-01-19T11:21:33.436Z,1.50
2018-01-19T11:24:01.457Z,1.40
2018-01-19T11:26:30.224Z,1.62
2018-01-19T11:28:58.214Z,1.37
2018-01-19T11:31:26.212Z,1.00
2018-01-19T11:33:54.971Z,1.30
2018-01-19T11:36:22.968Z,2.60
2018-01-19T11:38:50.963Z,1.15
2018-01-19T11:41:18.958Z,2.50
2018-01-19T11:43:47.723Z,0.90
2018-01-19T11:46:15.717Z,1.12
2018-01-19T11:48:43.729Z,0.90
2018-01-19T11:51:12.517Z,1.50
2018-01-19T11:53:40.505Z,1.30
2018-01-19T11:56:08.496Z,1.67
2018-01-19T11:58:37.268Z,1.30
2018-01-19T12:01:05.264Z,0.88
2018-01-19T12:03:33.264Z,1.10
2018-01-19T12:06:02.028Z,1.25
2018-01-19T12:08:30.017Z,1.30
2018-01-19T12:10:58.012Z,1.20
2018-01-19T12:13:26.013Z,1.10
2018-01-19T12:15:54.960Z,1.20
2018-01-19T12:18:22.973Z,1.27
2018-01-19T12:20:50.963Z,1.40
2018-01-19T12:23:18.961Z,1.00
2018-01-19T12:25:47.728Z,1.25
2018-01-19T12:28:15.832Z,1.12
2018-01-19T12:30:43.832Z,1.37
2018-01-19T12:33:12.600Z,1.15
2018-01-19T12:35:40.607Z,1.20
2018-01-19T12:38:09.362Z,1.08
2018-01-19T12:40:37.367Z,0.80
2018-01-19T12:43:05.369Z,1.17
2018-01-19T12:45:33.402Z,1.30
2018-01-19T12:48:02.128Z,0.80
2018-01-19T12:50:31.648Z,1.08
2018-01-19T12:52:59.628Z,0.90
2018-01-19T12:55:27.632Z,0.90
2018-01-19T12:57:56.404Z,0.93
2018-01-19T13:00:24.388Z,1.33
2018-01-19T13:02:52.403Z,0.98
2018-01-19T13:05:20.383Z,1.00
2018-01-19T13:07:49.144Z,1.17
2018-01-19T13:10:17.144Z,1.02
2018-01-19T13:12:45.167Z,1.05
2018-01-19T13:15:13.208Z,1.45
2018-01-19T13:17:41.239Z,1.10
2018-01-19T13:20:09.263Z,0.98
2018-01-19T13:22:37.275Z,1.10
2018-01-19T13:25:05.292Z,1.60
2018-01-19T13:27:33.317Z,0.60
2018-01-19T13:30:01.353Z,0.80
2018-01-19T13:32:32.752Z,0.88
2018-01-19T13:35:01.042Z,1.30
2018-01-19T13:37:29.044Z,0.60
2018-01-19T13:39:57.048Z,1.02
2018-01-19T13:42:25.058Z,1.10
2018-01-19T13:44:53.040Z,0.75
2018-01-19T13:47:21.039Z,0.70
2018-01-19T13:49:49.045Z,0.90
2018-01-19T13:52:17.036Z,0.90
2018-01-19T13:54:45.039Z,0.93
2018-01-19T13:57:13.817Z,1.23
2018-01-19T13:59:41.805Z,1.25
2018-01-19T14:02:09.796Z,0.80
2018-01-19T14:04:37.792Z,1.60
2018-01-19T14:07:06.568Z,1.35
2018-01-19T14:09:34.564Z,0.95
2018-01-19T14:12:04.080Z,0.90
2018-01-19T14:14:32.080Z,1.00
2018-01-19T14:17:00.844Z,0.90
2018-01-19T14:19:28.852Z,0.80
2018-01-19T14:21:56.836Z,1.50
2018-01-19T14:24:25.616Z,1.00
2018-01-19T14:26:53.623Z,1.35
2018-01-19T14:29:22.384Z,0.80
2018-01-19T14:31:50.384Z,0.70
2018-01-19T14:34:18.400Z,0.80
2018-01-19T14:36:47.157Z,0.98
2018-01-19T14:39:15.245Z,0.80
2018-01-19T14:41:43.276Z,1.65
2018-01-19T14:44:12.020Z,1.00
2018-01-19T14:46:40.021Z,1.50
2018-01-19T14:49:08.024Z,0.93
2018-01-19T14:51:36.777Z,0.60
2018-01-19T14:54:04.779Z,0.75
2018-01-19T14:56:32.804Z,0.80
2018-01-19T14:59:00.803Z,1.02
2018-01-19T15:01:28.846Z,0.90
2018-01-19T15:03:56.862Z,1.25
2018-01-19T15:06:24.843Z,1.15
2018-01-19T15:08:52.847Z,0.95
2018-01-19T15:11:20.847Z,1.15
2018-01-19T15:13:48.840Z,0.88
2018-01-19T15:16:16.848Z,0.70
2018-01-19T15:18:44.862Z,1.10
2018-01-19T15:21:12.837Z,0.90
2018-01-19T15:23:40.856Z,1.20
2018-01-19T15:26:08.846Z,1.40
2018-01-19T15:28:36.834Z,0.80
2018-01-19T15:31:04.840Z,1.10
2018-01-19T15:33:32.841Z,0.90
2018-01-19T15:36:01.600Z,0.75
2018-01-19T15:38:29.595Z,0.75
2018-01-19T15:40:57.603Z,1.25
2018-01-19T15:43:26.359Z,1.50
2018-01-19T15:45:54.360Z,1.08
2018-01-19T15:48:22.360Z,1.48
2018-01-19T15:50:51.116Z,1.70
2018-01-19T15:53:19.164Z,1.10
2018-01-19T15:55:47.164Z,1.20
2018-01-19T15:58:15.160Z,0.80
2018-01-19T16:00:43.190Z,1.58
2018-01-19T16:03:11.199Z,1.65
2018-01-19T16:05:39.189Z,1.48
2018-01-19T16:08:07.188Z,1.30
2018-01-19T16:10:35.179Z,1.48
2018-01-19T16:13:03.172Z,1.12
2018-01-19T16:15:31.217Z,1.45
2018-01-19T16:17:59.951Z,1.20
2018-01-19T16:20:28.125Z,1.12
2018-01-19T16:22:56.148Z,1.58
2018-01-19T16:25:24.164Z,1.50
2018-01-19T16:27:52.920Z,1.80
2018-01-19T16:30:20.924Z,1.20
2018-01-19T16:32:49.692Z,1.40
2018-01-19T16:35:17.689Z,1.62
2018-01-19T16:37:45.707Z,2.05
2018-01-19T16:40:14.468Z,1.20
2018-01-19T16:42:42.455Z,1.40
2018-01-19T16:45:10.456Z,1.23
2018-01-19T16:47:39.228Z,1.50
2018-01-19T16:50:07.212Z,1.67
2018-01-19T16:52:35.226Z,1.58
2018-01-19T16:55:03.996Z,2.15
2018-01-19T16:57:31.984Z,2.12
2018-01-19T16:59:59.991Z,1.73
2018-01-19T17:02:28.769Z,1.80
2018-01-19T17:04:56.797Z,1.20
2018-01-19T17:07:24.775Z,1.95
2018-01-19T17:09:52.797Z,2.10
2018-01-19T17:12:20.922Z,2.03
2018-01-19T17:14:49.024Z,2.40
2018-01-19T17:17:17.048Z,2.22
2018-01-19T17:19:45.038Z,2.25
2018-01-19T17:22:13.051Z,2.45
2018-01-19T17:24:41.821Z,2.20
2018-01-19T17:27:09.826Z,2.53
2018-01-19T17:29:38.016Z,1.80
2018-01-19T17:32:07.366Z,2.25
2018-01-19T17:34:35.353Z,1.15
2018-01-19T17:37:03.357Z,1.30
2018-01-19T17:39:31.363Z,1.55
2018-01-19T17:41:59.352Z,1.42
2018-01-19T17:44:31.916Z,1.70
2018-01-19T17:47:04.888Z,2.00
2018-01-19T17:49:40.399Z,2.22
2018-01-19T17:52:10.005Z,1.90
2018-01-19T17:54:42.754Z,2.03
2018-01-19T17:57:15.756Z,2.72
2018-01-19T17:59:44.333Z,2.40
2018-01-19T18:02:13.326Z,2.20
2018-01-19T18:04:45.255Z,2.50
2018-01-19T18:07:14.323Z,3.03
2018-01-19T18:09:43.634Z,2.50
2018-01-19T18:12:14.969Z,2.28
2018-01-19T18:14:44.494Z,2.28
2018-01-19T18:17:15.736Z,2.50
2018-01-19T18:19:44.901Z,2.40
2018-01-19T18:22:13.796Z,2.50
2018-01-19T18:24:42.864Z,2.50
2018-01-19T18:27:12.404Z,2.17
2018-01-19T18:29:41.100Z,3.42
2018-01-19T18:32:09.103Z,2.70
2018-01-19T18:34:37.096Z,2.33
2018-01-19T18:37:05.100Z,2.35
2018-01-19T18:39:33.117Z,2.70
2018-01-19T18:42:01.100Z,2.83
2018-01-19T18:44:29.111Z,2.35
2018-01-19T18:46:57.886Z,1.90
2018-01-19T18:49:25.872Z,2.80
2018-01-19T18:51:53.880Z,3.55
2018-01-19T18:54:22.784Z,2.60
2018-01-19T18:56:51.531Z,2.05
2018-01-19T18:59:19.537Z,3.17
2018-01-19T19:01:47.545Z,4.18
2018-01-19T19:04:16.295Z,3.45
2018-01-19T19:06:44.296Z,2.62
2018-01-19T19:09:12.297Z,3.55
2018-01-19T19:11:40.288Z,3.97
2018-01-19T19:14:09.052Z,3.10
2018-01-19T19:16:37.068Z,3.37
2018-01-19T19:19:05.836Z,2.90
2018-01-19T19:21:33.897Z,3.75
2018-01-19T19:24:01.867Z,4.00
2018-01-19T19:26:30.406Z,3.65
2018-01-19T19:28:58.418Z,3.30
2018-01-19T19:31:27.182Z,3.87
2018-01-19T19:33:55.160Z,4.47
2018-01-19T19:36:23.163Z,3.83
2018-01-19T19:38:51.168Z,3.67
2018-01-19T19:41:19.927Z,3.47
2018-01-19T19:43:47.940Z,3.65
2018-01-19T19:46:16.717Z,3.55
2018-01-19T19:48:44.711Z,3.72
2018-01-19T19:51:12.727Z,3.50
2018-01-19T19:53:40.736Z,3.40
2018-01-19T19:56:14.493Z,3.10
2018-01-19T19:58:42.514Z,3.83
2018-01-19T20:01:10.512Z,3.80
2018-01-19T20:03:38.549Z,3.30
2018-01-19T20:06:06.615Z,3.95
2018-01-19T20:08:38.740Z,3.65
2018-01-19T20:11:06.796Z,3.75
2018-01-19T20:13:34.796Z,4.10
2018-01-19T20:16:03.562Z,4.12
2018-01-19T20:18:31.724Z,3.75
2018-01-19T20:20:59.680Z,3.75
2018-01-19T20:23:27.680Z,5.18
2018-01-19T20:25:55.692Z,4.40
2018-01-19T20:28:23.676Z,3.75
2018-01-19T20:30:51.707Z,4.80
2018-01-19T20:33:20.476Z,4.75
2018-01-19T20:35:48.460Z,3.95
2018-01-19T20:38:16.468Z,4.57
2018-01-19T20:40:45.259Z,4.53
2018-01-19T20:43:13.230Z,3.28
2018-01-19T20:45:41.239Z,3.53
2018-01-19T20:48:09.248Z,3.45
2018-01-19T20:50:37.240Z,3.72
2018-01-19T20:53:05.251Z,3.65
2018-01-19T20:55:33.301Z,3.37
2018-01-19T20:58:01.287Z,4.30
2018-01-19T21:00:29.339Z,3.53
2018-01-19T21:02:58.110Z,4.50
2018-01-19T21:05:26.154Z,5.43
2018-01-19T21:07:54.194Z,3.87
2018-01-19T21:10:23.884Z,5.57
2018-01-19T21:12:53.225Z,4.40
2018-01-19T21:15:21.383Z,4.15
2018-01-19T21:17:49.384Z,5.28
2018-01-19T21:20:18.151Z,3.20
2018-01-19T21:22:46.140Z,4.40
2018-01-19T21:25:14.292Z,3.25
2018-01-19T21:27:42.307Z,3.95
2018-01-19T21:30:10.320Z,3.90
2018-01-19T21:32:38.315Z,3.10
2018-01-19T21:35:07.071Z,4.03
2018-01-19T21:37:35.082Z,3.70
2018-01-19T21:40:03.123Z,4.32
2018-01-19T21:42:31.141Z,4.82
2018-01-19T21:44:59.152Z,3.92
2018-01-19T21:47:27.920Z,3.67
2018-01-19T21:49:55.916Z,3.28
2018-01-19T21:52:23.916Z,3.55
2018-01-19T21:54:52.675Z,3.65
2018-01-19T21:57:20.668Z,4.10
2018-01-19T21:59:48.656Z,4.05
2018-01-19T22:02:16.660Z,4.15
2018-01-19T22:04:45.422Z,3.40
2018-01-19T22:07:13.432Z,4.30
2018-01-19T22:09:41.423Z,2.87
2018-01-19T22:12:10.188Z,3.58
2018-01-19T22:14:38.192Z,3.40
2018-01-19T22:17:06.202Z,4.20
2018-01-19T22:19:34.956Z,2.75
2018-01-19T22:22:02.964Z,3.70
2018-01-19T22:24:31.736Z,3.45
2018-01-19T22:26:59.728Z,4.80
2018-01-19T22:29:27.743Z,3.67
2018-01-19T22:31:56.519Z,4.80
2018-01-19T22:34:24.508Z,4.97
2018-01-19T22:36:52.516Z,4.25
2018-01-19T22:39:21.280Z,4.35
2018-01-19T22:41:49.276Z,5.03
2018-01-19T22:44:18.044Z,4.05
2018-01-19T22:46:46.065Z,4.55
2018-01-19T22:49:14.820Z,4.47
2018-01-19T22:51:42.825Z,4.12
2018-01-19T22:54:10.815Z,3.85
2018-01-19T22:56:38.800Z,3.42
2018-01-19T22:59:06.805Z,3.28
2018-01-19T23:01:35.560Z,3.28
2018-01-19T23:04:03.576Z,3.83
2018-01-19T23:06:31.579Z,3.42
2018-01-19T23:08:59.592Z,3.72
2018-01-19T23:11:27.579Z,3.97
2018-01-19T23:13:55.590Z,4.97
2018-01-19T23:16:23.584Z,4.55
2018-01-19T23:18:51.576Z,4.43
2018-01-19T23:21:20.340Z,3.97
2018-01-19T23:23:48.340Z,5.00
2018-01-19T23:26:16.328Z,4.43
2018-01-19T23:28:44.343Z,4.95
2018-01-19T23:31:13.108Z,3.85
2018-01-19T23:33:41.097Z,4.55
2018-01-19T23:36:10.060Z,4.45
2018-01-19T23:38:38.188Z,4.40
2018-01-19T23:41:06.192Z,4.10
2018-01-19T23:43:34.958Z,5.30
2018-01-19T23:46:02.973Z,4.80
2018-01-19T23:48:31.729Z,4.60
2018-01-19T23:50:59.734Z,5.05
2018-01-19T23:53:27.737Z,4.53
2018-01-19T23:55:56.487Z,4.70
2018-01-19T23:58:24.499Z,5.12
